createdAt,value
2018-05-24T00:02:15.948Z,50.60
2018-05-24T00:04:43.564Z,50.60
2018-05-24T00:07:11.169Z,50.60
2018-05-24T00:09:39.122Z,50.60
2018-05-24T00:12:06.757Z,50.60
2018-05-24T00:14:34.341Z,50.60
2018-05-24T00:17:01.941Z,50.60
2018-05-24T00:19:29.505Z,50.60
2018-05-24T00:21:57.151Z,50.60
2018-05-24T00:24:24.728Z,50.60
2018-05-24T00:26:52.306Z,50.00
2018-05-24T00:29:19.891Z,50.60
2018-05-24T00:31:47.552Z,50.50
2018-05-24T00:34:15.129Z,50.60
2018-05-24T00:36:42.726Z,50.60
2018-05-24T00:39:10.480Z,50.60
2018-05-24T00:41:39.110Z,50.70
2018-05-24T00:44:06.929Z,50.50
2018-05-24T00:46:34.594Z,50.60
2018-05-24T00:49:02.145Z,50.60
2018-05-24T00:51:30.509Z,50.70
2018-05-24T00:53:58.077Z,50.60
2018-05-24T00:56:25.677Z,50.60
2018-05-24T00:58:53.278Z,50.60
2018-05-24T01:01:20.866Z,50.60
2018-05-24T01:03:48.462Z,50.60
2018-05-24T01:06:16.163Z,50.60
2018-05-24T01:08:43.733Z,50.60
2018-05-24T01:11:11.362Z,50.90
2018-05-24T01:13:39.410Z,50.60
2018-05-24T01:16:07.674Z,50.60
2018-05-24T01:18:35.343Z,50.60
2018-05-24T01:21:03.702Z,50.70
2018-05-24T01:23:31.267Z,50.50
2018-05-24T01:25:58.886Z,50.60
2018-05-24T01:28:26.491Z,50.60
2018-05-24T01:30:54.935Z,50.70
2018-05-24T01:33:22.534Z,50.50
2018-05-24T01:35:50.149Z,50.50
2018-05-24T01:38:17.852Z,50.60
2018-05-24T01:40:46.186Z,50.60
2018-05-24T01:43:13.798Z,50.50
2018-05-24T01:45:41.484Z,50.60
2018-05-24T01:48:09.169Z,51.10
2018-05-24T01:50:36.779Z,50.60
2018-05-24T01:53:04.345Z,50.50
2018-05-24T01:55:32.072Z,50.60
2018-05-24T01:58:00.406Z,50.50
2018-05-24T02:00:27.994Z,50.40
2018-05-24T02:02:55.560Z,50.50
2018-05-24T02:05:23.982Z,50.60
2018-05-24T02:07:51.581Z,50.40
2018-05-24T02:10:19.160Z,51.10
2018-05-24T02:12:46.723Z,50.60
2018-05-24T02:15:15.246Z,50.60
2018-05-24T02:17:42.810Z,50.50
2018-05-24T02:20:10.406Z,50.60
2018-05-24T02:22:38.728Z,50.60
2018-05-24T02:25:06.301Z,50.60
2018-05-24T02:27:33.976Z,50.60
2018-05-24T02:30:01.594Z,50.60
2018-05-24T02:32:29.182Z,50.50
2018-05-24T02:34:56.757Z,50.60
2018-05-24T02:37:24.423Z,50.50
2018-05-24T02:39:52.010Z,51.10
2018-05-24T02:42:19.605Z,50.50
2018-05-24T02:44:47.197Z,50.50
2018-05-24T02:47:14.824Z,50.60
2018-05-24T02:49:42.413Z,50.50
2018-05-24T02:52:10.038Z,50.50
2018-05-24T02:54:38.141Z,50.50
2018-05-24T02:57:05.751Z,50.40
2018-05-24T02:59:33.330Z,50.50
2018-05-24T03:02:00.945Z,50.50
2018-05-24T03:04:28.516Z,50.50
2018-05-24T03:06:56.092Z,50.50
2018-05-24T03:09:23.661Z,50.50
2018-05-24T03:11:51.293Z,50.50
2018-05-24T03:14:19.072Z,50.50
2018-05-24T03:16:46.631Z,50.50
2018-05-24T03:19:14.202Z,50.50
2018-05-24T03:21:42.628Z,50.60
2018-05-24T03:24:10.465Z,50.40
2018-05-24T03:26:39.125Z,50.50
2018-05-24T03:29:06.727Z,50.50
2018-05-24T03:31:34.394Z,50.50
2018-05-24T03:34:01.987Z,50.50
2018-05-24T03:36:29.574Z,50.50
2018-05-24T03:38:57.163Z,50.60
2018-05-24T03:41:24.769Z,50.40
2018-05-24T03:43:52.357Z,50.60
2018-05-24T03:46:19.997Z,50.60
2018-05-24T03:48:47.688Z,50.60
2018-05-24T03:51:15.371Z,50.60
2018-05-24T03:53:43.059Z,50.60
2018-05-24T03:56:10.669Z,50.60
2018-05-24T03:58:39.090Z,50.60
2018-05-24T04:01:18.518Z,50.40
2018-05-24T04:03:47.950Z,50.60
2018-05-24T04:06:15.832Z,50.60
2018-05-24T04:08:43.466Z,50.60
2018-05-24T04:11:11.130Z,50.60
2018-05-24T04:13:38.717Z,50.60
2018-05-24T04:16:06.328Z,50.50
2018-05-24T04:18:33.985Z,50.60
2018-05-24T04:21:01.960Z,50.50
2018-05-24T04:23:29.541Z,50.60
2018-05-24T04:25:57.160Z,50.60
2018-05-24T04:28:24.742Z,50.60
2018-05-24T04:30:52.339Z,50.60
2018-05-24T04:33:20.221Z,50.50
2018-05-24T04:35:47.877Z,50.60
2018-05-24T04:38:15.481Z,50.50
2018-05-24T04:40:43.125Z,50.50
2018-05-24T04:43:10.772Z,50.50
2018-05-24T04:45:38.833Z,50.60
2018-05-24T04:48:06.438Z,50.60
2018-05-24T04:50:34.091Z,50.60
2018-05-24T04:53:02.498Z,50.60
2018-05-24T04:55:30.858Z,50.60
2018-05-24T04:57:58.457Z,50.50
2018-05-24T05:00:27.113Z,50.50
2018-05-24T05:02:55.706Z,51.30
2018-05-24T05:05:24.848Z,50.50
2018-05-24T05:07:53.307Z,50.50
2018-05-24T05:10:22.468Z,50.60
2018-05-24T05:12:52.585Z,50.50
2018-05-24T05:15:20.212Z,50.50
2018-05-24T05:17:48.192Z,50.50
2018-05-24T05:20:15.803Z,50.60
2018-05-24T05:22:43.424Z,50.60
2018-05-24T05:25:11.099Z,50.60
2018-05-24T05:27:39.255Z,50.60
2018-05-24T05:30:06.873Z,51.10
2018-05-24T05:32:34.532Z,50.40
2018-05-24T05:35:02.146Z,50.50
2018-05-24T05:37:29.872Z,50.50
2018-05-24T05:39:57.505Z,51.10
2018-05-24T05:42:25.114Z,50.50
2018-05-24T05:44:52.748Z,50.50
2018-05-24T05:47:20.325Z,50.10
2018-05-24T05:49:48.773Z,50.60
2018-05-24T05:52:16.325Z,50.40
2018-05-24T05:54:44.655Z,50.60
2018-05-24T05:57:12.234Z,50.40
2018-05-24T05:59:39.996Z,50.50
2018-05-24T06:02:08.378Z,50.60
2018-05-24T06:04:36.135Z,50.40
2018-05-24T06:07:03.732Z,50.50
2018-05-24T06:09:31.307Z,50.50
2018-05-24T06:11:58.908Z,50.50
2018-05-24T06:14:26.498Z,50.50
2018-05-24T06:16:54.082Z,50.40
2018-05-24T06:19:21.669Z,50.60
2018-05-24T06:21:49.366Z,50.40
2018-05-24T06:24:16.998Z,50.50
2018-05-24T06:26:44.670Z,51.10
2018-05-24T06:29:13.058Z,50.50
2018-05-24T06:31:40.646Z,50.40
2018-05-24T06:34:08.302Z,51.00
2018-05-24T06:36:35.962Z,50.50
2018-05-24T06:39:03.609Z,50.50
2018-05-24T06:41:31.967Z,50.50
2018-05-24T06:43:59.564Z,51.00
2018-05-24T06:46:27.171Z,50.50
2018-05-24T06:48:54.749Z,50.50
2018-05-24T06:51:22.338Z,50.50
2018-05-24T06:53:50.028Z,50.50
2018-05-24T06:56:17.704Z,50.50
2018-05-24T06:58:45.397Z,50.50
2018-05-24T07:01:13.083Z,50.40
2018-05-24T07:03:40.748Z,50.50
2018-05-24T07:06:08.439Z,50.50
2018-05-24T07:08:36.141Z,50.50
2018-05-24T07:11:03.824Z,50.50
2018-05-24T07:13:32.141Z,50.60
2018-05-24T07:15:59.762Z,50.50
2018-05-24T07:18:28.163Z,50.40
2018-05-24T07:20:56.545Z,50.70
2018-05-24T07:23:24.137Z,50.50
2018-05-24T07:25:51.703Z,50.60
2018-05-24T07:28:19.386Z,50.50
2018-05-24T07:30:46.954Z,50.50
2018-05-24T07:33:14.553Z,50.50
2018-05-24T07:35:42.130Z,50.50
2018-05-24T07:38:09.713Z,50.50
2018-05-24T07:40:47.442Z,50.50
2018-05-24T07:43:15.047Z,50.40
2018-05-24T07:45:42.617Z,50.50
2018-05-24T07:48:10.343Z,50.50
2018-05-24T07:50:38.169Z,50.60
2018-05-24T07:53:06.593Z,50.70
2018-05-24T07:55:34.169Z,50.50
2018-05-24T07:58:01.746Z,50.50
2018-05-24T08:00:29.328Z,50.50
2018-05-24T08:02:56.919Z,50.50
2018-05-24T08:05:24.501Z,50.50
2018-05-24T08:07:52.152Z,50.50
2018-05-24T08:10:19.728Z,50.50
2018-05-24T08:12:47.565Z,50.50
2018-05-24T08:15:15.141Z,50.40
2018-05-24T08:17:42.714Z,50.40
2018-05-24T08:20:10.317Z,51.10
2018-05-24T08:22:38.696Z,50.50
2018-05-24T08:25:07.278Z,50.60
2018-05-24T08:27:34.872Z,50.40
2018-05-24T08:30:02.584Z,50.70
2018-05-24T08:32:31.076Z,50.60
2018-05-24T08:34:58.669Z,50.40
2018-05-24T08:37:27.000Z,50.50
2018-05-24T08:39:54.577Z,50.40
2018-05-24T08:42:22.138Z,50.50
2018-05-24T08:44:50.687Z,50.60
2018-05-24T08:47:18.324Z,50.40
2018-05-24T08:49:45.837Z,50.50
2018-05-24T08:52:13.496Z,50.50
2018-05-24T08:54:41.987Z,50.50
2018-05-24T08:57:09.580Z,50.40
2018-05-24T08:59:38.015Z,50.50
2018-05-24T09:02:06.352Z,50.40
2018-05-24T09:04:34.035Z,50.40
2018-05-24T09:07:01.653Z,50.50
2018-05-24T09:09:29.229Z,50.50
2018-05-24T09:11:56.821Z,50.50
2018-05-24T09:14:24.428Z,50.50
2018-05-24T09:16:52.795Z,50.60
2018-05-24T09:19:20.497Z,50.40
2018-05-24T09:21:48.114Z,50.50
2018-05-24T09:24:15.701Z,50.50
2018-05-24T09:26:44.046Z,50.60
2018-05-24T09:29:11.640Z,50.40
2018-05-24T09:31:39.431Z,50.40
2018-05-24T09:34:07.027Z,50.50
2018-05-24T09:36:34.624Z,50.50
2018-05-24T09:39:02.232Z,50.50
2018-05-24T09:41:30.654Z,50.60
2018-05-24T09:43:58.272Z,50.40
2018-05-24T09:46:25.861Z,50.50
2018-05-24T09:48:53.525Z,50.50
2018-05-24T09:51:21.174Z,50.50
2018-05-24T09:53:49.803Z,50.60
2018-05-24T09:56:17.373Z,50.40
2018-05-24T09:58:44.947Z,50.50
2018-05-24T10:01:13.308Z,49.90
2018-05-24T10:03:41.039Z,50.40
2018-05-24T10:06:08.754Z,50.50
2018-05-24T10:08:36.305Z,50.50
2018-05-24T10:11:04.640Z,50.60
2018-05-24T10:13:32.295Z,50.40
2018-05-24T10:16:00.620Z,50.90
2018-05-24T10:18:28.953Z,50.50
2018-05-24T10:20:56.630Z,50.40
2018-05-24T10:23:24.249Z,50.50
2018-05-24T10:25:51.916Z,50.50
2018-05-24T10:28:19.489Z,50.50
2018-05-24T10:30:47.121Z,50.50
2018-05-24T10:33:14.694Z,50.40
2018-05-24T10:35:43.809Z,50.40
2018-05-24T10:38:11.390Z,50.40
2018-05-24T10:40:39.142Z,50.50
2018-05-24T10:43:06.710Z,50.50
2018-05-24T10:45:34.310Z,50.50
2018-05-24T10:48:01.903Z,50.40
2018-05-24T10:50:29.507Z,50.50
2018-05-24T10:52:57.165Z,50.50
2018-05-24T10:55:24.745Z,50.50
2018-05-24T10:57:52.422Z,50.50
2018-05-24T11:00:19.960Z,50.50
2018-05-24T11:02:47.562Z,50.50
2018-05-24T11:05:15.286Z,50.50
2018-05-24T11:07:42.969Z,50.50
2018-05-24T11:10:11.305Z,50.50
2018-05-24T11:12:39.675Z,50.40
2018-05-24T11:15:07.276Z,50.50
2018-05-24T11:17:34.843Z,50.40
2018-05-24T11:20:02.430Z,50.50
2018-05-24T11:22:29.994Z,50.50
2018-05-24T11:24:58.325Z,50.60
2018-05-24T11:27:25.885Z,50.40
2018-05-24T11:29:54.330Z,51.00
2018-05-24T11:32:21.900Z,50.40
2018-05-24T11:34:49.464Z,50.50
2018-05-24T11:37:17.794Z,50.60
2018-05-24T11:39:45.359Z,50.40
2018-05-24T11:42:12.938Z,50.50
2018-05-24T11:44:41.288Z,50.60
2018-05-24T11:47:08.869Z,50.40
2018-05-24T11:49:36.568Z,49.90
2018-05-24T11:52:04.162Z,50.40
2018-05-24T11:54:31.763Z,50.50
2018-05-24T11:57:00.108Z,50.60
2018-05-24T11:59:27.725Z,50.40
2018-05-24T12:01:55.403Z,50.50
2018-05-24T12:04:22.978Z,50.40
2018-05-24T12:06:50.552Z,50.50
2018-05-24T12:09:18.148Z,50.40
2018-05-24T12:11:45.777Z,50.40
2018-05-24T12:14:14.123Z,50.10
2018-05-24T12:16:41.724Z,50.40
2018-05-24T12:19:09.380Z,50.50
2018-05-24T12:21:36.993Z,50.40
2018-05-24T12:24:04.559Z,50.40
2018-05-24T12:26:32.124Z,50.40
2018-05-24T12:29:00.466Z,50.60
2018-05-24T12:31:28.180Z,50.40
2018-05-24T12:33:57.358Z,50.60
2018-05-24T12:36:24.965Z,50.40
2018-05-24T12:38:52.645Z,50.50
2018-05-24T12:41:20.323Z,50.50
2018-05-24T12:43:47.911Z,50.50
2018-05-24T12:46:15.595Z,50.40
2018-05-24T12:48:43.164Z,50.40
2018-05-24T12:51:10.766Z,50.50
2018-05-24T12:53:38.426Z,50.50
2018-05-24T12:56:06.827Z,50.50
2018-05-24T12:58:35.474Z,50.40
2018-05-24T13:01:03.058Z,51.00
2018-05-24T13:03:30.648Z,50.50
2018-05-24T13:05:58.207Z,50.40
2018-05-24T13:08:25.885Z,50.50
2018-05-24T13:10:56.006Z,50.40
2018-05-24T13:13:23.782Z,50.40
2018-05-24T13:15:51.378Z,50.40
2018-05-24T13:18:19.735Z,50.50
2018-05-24T13:20:47.324Z,50.40
2018-05-24T13:23:14.940Z,50.40
2018-05-24T13:25:42.674Z,50.40
2018-05-24T13:28:10.235Z,50.40
2018-05-24T13:30:38.873Z,50.40
2018-05-24T13:33:06.445Z,50.40
2018-05-24T13:35:34.133Z,50.60
2018-05-24T13:38:01.746Z,50.50
2018-05-24T13:40:29.438Z,50.50
2018-05-24T13:42:57.845Z,50.50
2018-05-24T13:45:25.602Z,50.50
2018-05-24T13:47:53.194Z,50.50
2018-05-24T13:50:20.840Z,50.50
2018-05-24T13:52:49.302Z,50.70
2018-05-24T13:55:17.025Z,50.50
2018-05-24T13:57:45.652Z,50.50
2018-05-24T14:00:13.215Z,50.50
2018-05-24T14:02:40.852Z,50.50
2018-05-24T14:05:09.258Z,50.60
2018-05-24T14:07:36.869Z,50.50
2018-05-24T14:10:04.556Z,50.50
2018-05-24T14:12:32.124Z,50.50
2018-05-24T14:14:59.710Z,50.40
2018-05-24T14:17:28.206Z,50.60
2018-05-24T14:19:56.514Z,50.40
2018-05-24T14:22:24.822Z,50.50
2018-05-24T14:24:53.032Z,50.50
2018-05-24T14:27:21.281Z,50.50
2018-05-24T14:29:49.680Z,50.50
2018-05-24T14:32:17.315Z,50.40
2018-05-24T14:34:45.170Z,50.50
2018-05-24T14:37:12.993Z,50.50
2018-05-24T14:39:41.525Z,50.50
2018-05-24T14:42:09.156Z,50.40
2018-05-24T14:44:36.918Z,50.50
2018-05-24T14:47:04.591Z,50.60
2018-05-24T14:49:32.262Z,50.40
2018-05-24T14:52:02.001Z,50.60
2018-05-24T14:54:29.846Z,50.40
2018-05-24T14:56:58.213Z,50.60
2018-05-24T14:59:25.846Z,50.40
2018-05-24T15:01:54.235Z,50.60
2018-05-24T15:04:23.411Z,50.60
2018-05-24T15:06:51.060Z,50.40
2018-05-24T15:09:19.483Z,50.50
2018-05-24T15:11:47.827Z,50.40
2018-05-24T15:14:15.457Z,50.40
2018-05-24T15:16:43.874Z,50.60
2018-05-24T15:19:12.324Z,50.50
2018-05-24T15:21:40.192Z,50.40
2018-05-24T15:24:08.071Z,50.50
2018-05-24T15:26:36.849Z,50.50
2018-05-24T15:29:06.004Z,50.50
2018-05-24T15:31:34.880Z,50.50
2018-05-24T15:34:04.151Z,50.50
2018-05-24T15:36:31.922Z,50.50
2018-05-24T15:39:00.337Z,50.50
2018-05-24T15:41:27.977Z,50.40
2018-05-24T15:43:55.577Z,50.50
2018-05-24T15:46:23.178Z,50.50
2018-05-24T15:48:51.709Z,50.60
2018-05-24T15:51:20.221Z,50.50
2018-05-24T15:53:47.899Z,50.40
2018-05-24T15:56:16.332Z,50.50
2018-05-24T15:58:43.934Z,50.40
2018-05-24T16:01:11.779Z,50.50
2018-05-24T16:03:39.438Z,50.50
2018-05-24T16:06:07.890Z,50.40
2018-05-24T16:08:35.477Z,50.40
2018-05-24T16:11:03.074Z,50.50
2018-05-24T16:13:30.624Z,50.50
2018-05-24T16:15:58.992Z,50.50
2018-05-24T16:18:26.642Z,50.40
2018-05-24T16:20:54.350Z,50.50
2018-05-24T16:23:21.935Z,50.50
2018-05-24T16:25:49.673Z,50.40
2018-05-24T16:28:18.020Z,50.50
2018-05-24T16:30:45.589Z,50.40
2018-05-24T16:33:13.215Z,50.50
2018-05-24T16:35:40.772Z,50.40
2018-05-24T16:38:08.357Z,50.50
2018-05-24T16:40:36.005Z,50.40
2018-05-24T16:43:03.578Z,50.40
2018-05-24T16:45:31.917Z,50.60
2018-05-24T16:47:59.485Z,50.40
2018-05-24T16:50:27.130Z,50.40
2018-05-24T16:52:54.726Z,50.40
2018-05-24T16:55:23.076Z,50.40
2018-05-24T16:57:50.667Z,50.40
2018-05-24T17:00:18.249Z,50.40
2018-05-24T17:02:45.806Z,50.50
2018-05-24T17:05:13.441Z,50.40
2018-05-24T17:07:41.063Z,50.40
2018-05-24T17:10:09.505Z,50.50
2018-05-24T17:12:38.333Z,50.40
2018-05-24T17:15:05.930Z,50.50
2018-05-24T17:17:33.528Z,50.40
2018-05-24T17:20:01.127Z,50.50
2018-05-24T17:22:29.853Z,50.60
2018-05-24T17:24:57.437Z,50.40
2018-05-24T17:27:25.796Z,50.40
2018-05-24T17:29:53.459Z,50.40
2018-05-24T17:32:21.086Z,50.50
2018-05-24T17:34:48.721Z,50.40
2018-05-24T17:37:16.282Z,50.70
2018-05-24T17:39:44.629Z,50.50
2018-05-24T17:42:12.378Z,50.40
2018-05-24T17:44:40.706Z,50.40
2018-05-24T17:47:08.403Z,50.40
2018-05-24T17:49:35.994Z,50.50
2018-05-24T17:52:03.679Z,50.40
2018-05-24T17:54:31.347Z,50.40
2018-05-24T17:56:59.059Z,50.40
2018-05-24T17:59:26.622Z,50.40
2018-05-24T18:01:54.334Z,50.40
2018-05-24T18:04:21.901Z,50.40
2018-05-24T18:06:49.489Z,50.40
2018-05-24T18:09:17.063Z,50.40
2018-05-24T18:11:44.687Z,50.40
2018-05-24T18:14:12.248Z,50.40
2018-05-24T18:16:39.836Z,50.40
2018-05-24T18:19:07.456Z,50.40
2018-05-24T18:21:35.677Z,50.50
2018-05-24T18:24:03.397Z,50.40
2018-05-24T18:26:30.992Z,50.40
2018-05-24T18:28:58.588Z,50.40
2018-05-24T18:31:26.253Z,50.40
2018-05-24T18:33:53.908Z,50.50
2018-05-24T18:36:21.478Z,50.40
2018-05-24T18:38:49.925Z,50.40
2018-05-24T18:41:17.492Z,50.40
2018-05-24T18:43:45.902Z,50.40
2018-05-24T18:46:13.477Z,50.40
2018-05-24T18:48:41.808Z,50.40
2018-05-24T18:51:09.371Z,50.40
2018-05-24T18:53:36.972Z,50.40
2018-05-24T18:56:04.573Z,50.40
2018-05-24T18:58:32.256Z,50.40
2018-05-24T19:00:59.838Z,50.40
2018-05-24T19:03:27.409Z,50.40
2018-05-24T19:05:54.968Z,50.40
2018-05-24T19:08:22.539Z,50.40
2018-05-24T19:10:50.988Z,50.50
2018-05-24T19:13:18.555Z,50.40
2018-05-24T19:15:46.154Z,50.40
2018-05-24T19:18:13.720Z,50.40
2018-05-24T19:20:42.129Z,50.30
2018-05-24T19:23:09.703Z,50.40
2018-05-24T19:25:37.297Z,50.40
2018-05-24T19:28:04.918Z,50.40
2018-05-24T19:30:32.744Z,50.40
2018-05-24T19:33:01.168Z,50.90
2018-05-24T19:35:28.735Z,50.40
2018-05-24T19:37:57.158Z,50.40
2018-05-24T19:40:25.520Z,50.50
2018-05-24T19:42:53.213Z,50.50
2018-05-24T19:45:20.829Z,50.60
2018-05-24T19:47:49.258Z,50.50
2018-05-24T19:50:16.857Z,50.80
2018-05-24T19:52:44.428Z,50.90
2018-05-24T19:55:11.992Z,50.90
2018-05-24T19:57:39.623Z,51.10
2018-05-24T20:00:07.230Z,51.00
2018-05-24T20:02:34.833Z,51.20
2018-05-24T20:05:03.153Z,51.00
2018-05-24T20:07:30.754Z,51.10
2018-05-24T20:09:58.377Z,51.20
2018-05-24T20:12:26.073Z,51.30
2018-05-24T20:14:53.717Z,51.40
2018-05-24T20:17:21.342Z,51.40
2018-05-24T20:19:48.915Z,51.50
2018-05-24T20:22:16.537Z,51.40
2018-05-24T20:24:44.988Z,51.90
2018-05-24T20:27:12.662Z,51.50
2018-05-24T20:29:40.250Z,51.60
2018-05-24T20:32:07.841Z,51.60
2018-05-24T20:34:35.442Z,51.60
2018-05-24T20:37:03.057Z,51.60
2018-05-24T20:39:30.703Z,51.70
2018-05-24T20:41:58.277Z,51.80
2018-05-24T20:44:25.860Z,51.80
2018-05-24T20:46:53.458Z,51.80
2018-05-24T20:49:21.034Z,51.70
2018-05-24T20:51:48.622Z,51.70
2018-05-24T20:54:16.214Z,51.60
2018-05-24T20:56:43.898Z,51.70
2018-05-24T20:59:11.485Z,51.50
2018-05-24T21:01:39.489Z,51.60
2018-05-24T21:04:07.071Z,51.50
2018-05-24T21:06:34.644Z,51.70
2018-05-24T21:09:02.218Z,51.60
2018-05-24T21:11:29.794Z,51.50
2018-05-24T21:13:57.436Z,51.50
2018-05-24T21:16:24.963Z,51.50
2018-05-24T21:18:52.629Z,51.50
2018-05-24T21:21:20.992Z,51.40
2018-05-24T21:23:48.681Z,51.50
2018-05-24T21:26:16.246Z,52.00
2018-05-24T21:28:43.821Z,51.60
2018-05-24T21:31:11.409Z,51.50
2018-05-24T21:33:39.548Z,51.50
2018-05-24T21:36:07.124Z,51.50
2018-05-24T21:38:34.703Z,51.50
2018-05-24T21:41:02.306Z,51.50
2018-05-24T21:43:30.035Z,51.50
2018-05-24T21:45:57.648Z,51.50
2018-05-24T21:48:25.312Z,51.40
2018-05-24T21:50:52.900Z,51.40
2018-05-24T21:53:20.879Z,51.50
2018-05-24T21:55:49.302Z,51.20
2018-05-24T21:58:16.910Z,51.40
2018-05-24T22:00:50.297Z,51.50
2018-05-24T22:03:17.904Z,51.50
2018-05-24T22:05:45.549Z,51.30
2018-05-24T22:08:13.441Z,51.40
2018-05-24T22:10:41.925Z,51.20
2018-05-24T22:13:09.524Z,51.40
2018-05-24T22:15:37.938Z,51.20
2018-05-24T22:18:06.306Z,51.10
2018-05-24T22:20:33.885Z,51.40
2018-05-24T22:23:02.583Z,51.40
2018-05-24T22:25:31.799Z,51.20
2018-05-24T22:28:00.071Z,51.30
2018-05-24T22:30:28.273Z,51.40
2018-05-24T22:32:57.108Z,51.30
2018-05-24T22:35:25.181Z,51.20
2018-05-24T22:37:54.019Z,51.40
2018-05-24T22:40:25.204Z,51.40
2018-05-24T22:42:53.571Z,51.10
2018-05-24T22:45:22.316Z,51.30
2018-05-24T22:47:51.679Z,51.00
2018-05-24T22:50:20.511Z,51.20
2018-05-24T22:52:49.234Z,51.20
2018-05-24T22:55:18.983Z,51.30
2018-05-24T22:57:47.500Z,51.20
2018-05-24T23:00:17.904Z,51.00
2018-05-24T23:02:46.282Z,51.30
2018-05-24T23:05:13.961Z,51.20
2018-05-24T23:07:43.512Z,51.30
2018-05-24T23:10:13.595Z,51.20
2018-05-24T23:12:44.362Z,51.10
2018-05-24T23:15:13.337Z,51.60
2018-05-24T23:17:42.946Z,51.20
2018-05-24T23:20:12.101Z,51.10
2018-05-24T23:22:40.940Z,51.20
2018-05-24T23:25:10.177Z,51.20
2018-05-24T23:27:39.080Z,51.20
2018-05-24T23:30:09.266Z,51.00
2018-05-24T23:32:39.215Z,51.00
2018-05-24T23:35:08.677Z,51.00
2018-05-24T23:37:37.213Z,51.30
2018-05-24T23:40:05.607Z,51.30
2018-05-24T23:42:35.234Z,51.00
2018-05-24T23:45:03.754Z,51.20
2018-05-24T23:47:32.246Z,51.10
2018-05-24T23:50:01.075Z,51.20
2018-05-24T23:52:29.773Z,51.20
2018-05-24T23:54:58.918Z,51.20
2018-05-24T23:57:28.110Z,51.00
2018-05-24T23:59:55.736Z,51.10
